Ryozan Maru — JG5364 — position and weather

sailwx.info

Track history (hours):
 
Tides and Currents Weather Stations Pressure Air Temp Water Temp Dewpoint Dewpoint Depression Visibility Wind Speed Wind Dir Waves Ship Positions

Ryozan Maru

Last reported at 2018-Feb-18 08:20 UTC. Time now 2018-Feb-19 08:25 UTC.
Position N 33°35' E 129°49'.

Length 65 m; draft 4.4 m.

Type: Tanker. MMSI: 431100316.

Date/timePositionNaut miles runAvg speedWind from/ knotsBaromVisibWave heightAir tempDewpointWater temp
2018-Feb-18 08:20N 33°35' E 129°49'412.5
2018-Feb-18 08:00N 33°38' E 129°52'712.6
2018-Feb-18 07:29N 33°42' E 129°58'612.2
2018-Feb-18 07:00N 33°45' E 130°04'612.0
2018-Feb-18 06:30N 33°49' E 130°10'611.9
2018-Feb-18 06:00N 33°52' E 130°16'612.0
2018-Feb-18 05:30N 33°56' E 130°22'611.1
2018-Feb-18 05:00N 33°57' E 130°28'612.0
2018-Feb-18 04:31N 33°58' E 130°35'612.4
2018-Feb-18 04:00N 33°58' E 130°43'4 7.4
2018-Feb-18 03:31N 33°56' E 130°47'0 0.0
2018-Feb-18 03:00N 33°56' E 130°47'0 0.0
2018-Feb-18 02:30N 33°56' E 130°47'0 0.0
2018-Feb-18 02:00N 33°56' E 130°47'0 0.0
2018-Feb-18 01:30N 33°56' E 130°47'0 0.0
2018-Feb-18 01:00N 33°56' E 130°47'0 0.0
2018-Feb-18 00:30N 33°56' E 130°47'1 2.8
2018-Feb-18 00:00N 33°57' E 130°46'5 9.8
2018-Feb-17 23:30N 34°02' E 130°47'611.4
2018-Feb-17 23:00N 34°01' E 130°54'1 1.0
2018-Feb-17 22:30N 34°01' E 130°54'0 0.0
2018-Feb-17 22:00N 34°01' E 130°54'0 0.0
2018-Feb-17 21:30N 34°01' E 130°54'0 0.0
2018-Feb-17 20:57N 34°01' E 130°54'0 0.0
2018-Feb-17 20:30N 34°01' E 130°54'0 0.0
2018-Feb-17 20:00N 34°01' E 130°54'0 0.0
2018-Feb-17 19:30N 34°01' E 130°54'0 0.0
2018-Feb-17 19:00N 34°01' E 130°54'0 0.0
2018-Feb-17 18:30N 34°01' E 130°54'0 0.0
2018-Feb-17 18:00N 34°01' E 130°54'0 0.1
2018-Feb-17 17:30N 34°01' E 130°54'0 0.1
2018-Feb-17 17:00N 34°01' E 130°54'0 0.1
2018-Feb-17 16:30N 34°01' E 130°54'0 0.0
2018-Feb-17 16:00N 34°01' E 130°54'0 0.0
2018-Feb-17 15:30N 34°01' E 130°54'0 0.0
2018-Feb-17 15:00N 34°01' E 130°54'0 0.1
2018-Feb-17 14:30N 34°01' E 130°54'0 0.0
2018-Feb-17 14:00N 34°01' E 130°54'0 0.1
2018-Feb-17 13:30N 34°01' E 130°54'0 0.0
2018-Feb-17 13:00N 34°01' E 130°54'0 0.0
2018-Feb-17 12:30N 34°01' E 130°54'0 0.1
2018-Feb-17 12:00N 34°01' E 130°54'0 0.0
2018-Feb-17 11:30N 34°01' E 130°54'1 3.0
2018-Feb-17 11:01N 34°00' E 130°53'612.0
2018-Feb-17 10:30N 34°02' E 130°46'611.4
2018-Feb-17 10:00N 34°02' E 130°39'611.5
2018-Feb-17 09:30N 33°59' E 130°33'611.4
2018-Feb-17 09:00N 33°57' E 130°26'611.7
2018-Feb-17 08:30N 33°54' E 130°20'611.5
2018-Feb-17 08:00N 33°51' E 130°14'611.9
2018-Feb-17 07:30N 33°48' E 130°08'611.9
2018-Feb-17 07:00N 33°44' E 130°03'812.0
2018-Feb-17 06:20N 33°40' E 129°55'512.5
2018-Feb-17 05:56N 33°36' E 129°50'1 0.1
2018-Feb-16 20:42N 33°36' E 129°49'311.9
2018-Feb-16 20:29N 33°38' E 129°51'611.5
2018-Feb-16 19:59N 33°41' E 129°56'511.2
2018-Feb-16 19:30N 33°44' E 130°01'611.0
2018-Feb-16 19:00N 33°47' E 130°07'511.0
2018-Feb-16 18:30N 33°50' E 130°12'510.7
2018-Feb-16 18:00N 33°54' E 130°17'510.5
2018-Feb-16 17:30N 33°56' E 130°23'510.2
2018-Feb-16 17:00N 33°58' E 130°29'510.3
2018-Feb-16 16:30N 34°00' E 130°34'510.4
2018-Feb-16 16:00N 34°02' E 130°40'5 9.9
2018-Feb-16 15:30N 34°03' E 130°46'5 9.4
2018-Feb-16 15:00N 34°00' E 130°51'510.5
2018-Feb-16 14:30N 33°55' E 130°54'5 9.4
2018-Feb-16 14:00N 33°58' E 130°58'510.4
2018-Feb-16 13:30N 33°57' E 131°04'612.3
2018-Feb-16 13:00N 33°53' E 131°10'611.3
2018-Feb-16 12:30N 33°51' E 131°17'5 9.9
2018-Feb-16 12:00N 33°50' E 131°22'5 9.8
2018-Feb-16 11:30N 33°49' E 131°28'5 9.8
2018-Feb-16 11:00N 33°48' E 131°34'510.8
2018-Feb-16 10:30N 33°47' E 131°40'612.6
2018-Feb-16 10:00N 33°46' E 131°48'612.3
2018-Feb-16 09:30N 33°46' E 131°55'612.0
2018-Feb-16 09:00N 33°46' E 132°02'611.7
2018-Feb-16 08:30N 33°49' E 132°08'510.6
2018-Feb-16 07:59N 33°54' E 132°09'4 8.6
2018-Feb-16 07:29N 33°58' E 132°12'511.3
2018-Feb-16 07:00N 34°03' E 132°15'612.2
2018-Feb-16 06:30N 34°08' E 132°18'611.1
2018-Feb-16 06:00N 34°13' E 132°15'0 0.4
2018-Feb-16 05:30N 34°13' E 132°15'0 0.0
2018-Feb-16 05:00N 34°13' E 132°15'0 0.0
2018-Feb-16 04:30N 34°13' E 132°15'0 0.0
2018-Feb-16 04:00N 34°13' E 132°15'0 0.0
2018-Feb-16 03:30N 34°13' E 132°15'0 0.0
2018-Feb-16 03:00N 34°13' E 132°15'0 0.0
2018-Feb-16 02:30N 34°13' E 132°15'0 0.0
2018-Feb-16 02:00N 34°13' E 132°15'0 0.0
2018-Feb-16 01:30N 34°13' E 132°15'0 0.0
2018-Feb-16 01:00N 34°13' E 132°15'0 0.0
2018-Feb-16 00:30N 34°13' E 132°15'0 0.0
2018-Feb-16 00:00N 34°13' E 132°15'0 0.0
2018-Feb-15 23:30N 34°13' E 132°15'0 0.0
2018-Feb-15 23:00N 34°13' E 132°15'0 0.0
2018-Feb-15 22:30N 34°13' E 132°15'0 0.0
2018-Feb-15 22:00N 34°13' E 132°15'0 0.0
2018-Feb-15 21:30N 34°13' E 132°15'0 0.0
2018-Feb-15 21:00N 34°13' E 132°15'0 0.0
2018-Feb-15 20:30N 34°13' E 132°15'0 0.0
2018-Feb-15 20:00N 34°13' E 132°15'0 0.0
2018-Feb-15 19:30N 34°13' E 132°15'0 0.0
2018-Feb-15 19:00N 34°13' E 132°15'0 0.0
2018-Feb-15 18:30N 34°13' E 132°15'0 0.0
2018-Feb-15 18:00N 34°13' E 132°15'0 0.0
2018-Feb-15 17:30N 34°13' E 132°15'0 0.0
2018-Feb-15 17:00N 34°13' E 132°15'0 0.0
2018-Feb-15 16:30N 34°13' E 132°15'0 0.0
2018-Feb-15 16:00N 34°13' E 132°15'0 0.0
2018-Feb-15 15:30N 34°13' E 132°15'0 0.0
2018-Feb-15 15:00N 34°13' E 132°15'0 0.0
2018-Feb-15 14:30N 34°13' E 132°15'0 0.0
2018-Feb-15 14:00N 34°13' E 132°15'0 0.0
2018-Feb-15 13:30N 34°13' E 132°15'0 0.0
2018-Feb-15 13:00N 34°13' E 132°15'0 0.0
2018-Feb-15 12:30N 34°13' E 132°15'0 0.0
2018-Feb-15 12:00N 34°13' E 132°15'0 0.0
2018-Feb-15 11:30N 34°13' E 132°15'0 0.0
2018-Feb-15 11:00N 34°13' E 132°15'0 0.0
2018-Feb-15 10:30N 34°13' E 132°15'0 0.0
2018-Feb-15 10:00N 34°13' E 132°15'0 0.0
2018-Feb-15 09:30N 34°13' E 132°15'0 0.0
2018-Feb-15 09:00N 34°13' E 132°15'0 0.0
2018-Feb-15 08:30N 34°13' E 132°15'0 0.0
2018-Feb-15 08:00N 34°13' E 132°15'0 0.0
2018-Feb-15 07:30N 34°13' E 132°15'0 0.0
2018-Feb-15 07:00N 34°13' E 132°15'0 0.0
2018-Feb-15 06:30N 34°13' E 132°15'1 1.3
2018-Feb-15 06:00N 34°13' E 132°15'612.6
2018-Feb-15 05:30N 34°16' E 132°22'612.7
2018-Feb-15 05:00N 34°19' E 132°29'3 5.3
2018-Feb-15 04:30N 34°22' E 132°31'0 0.0
2018-Feb-15 04:00N 34°22' E 132°31'0 0.0
2018-Feb-15 03:30N 34°22' E 132°31'0 0.0
2018-Feb-15 03:00N 34°22' E 132°31'0 0.0
2018-Feb-15 02:30N 34°22' E 132°31'0 0.0
2018-Feb-15 02:00N 34°22' E 132°31'0 0.0
2018-Feb-15 01:30N 34°22' E 132°31'0 0.0
2018-Feb-15 01:00N 34°22' E 132°31'0 0.0
2018-Feb-15 00:29N 34°22' E 132°31'0 0.6
2018-Feb-15 00:00N 34°21' E 132°31'2 3.9
2018-Feb-14 23:30N 34°20' E 132°29'1 2.5
2018-Feb-14 22:59N 34°18' E 132°29'0 0.0
2018-Feb-14 22:29N 34°18' E 132°29'0 0.0
2018-Feb-14 21:59N 34°18' E 132°29'0 0.0
2018-Feb-14 21:29N 34°18' E 132°29'0 0.0
2018-Feb-14 20:59N 34°18' E 132°29'0 0.0
2018-Feb-14 20:29N 34°18' E 132°29'0 0.0
2018-Feb-14 20:00N 34°18' E 132°29'3 6.3
2018-Feb-14 19:30N 34°17' E 132°25'4 9.2
2018-Feb-14 19:00N 34°14' E 132°22'510.4
2018-Feb-14 18:30N 34°09' E 132°22'510.1
2018-Feb-14 17:58N 34°05' E 132°27'510.1
2018-Feb-14 17:26N 34°03' E 132°33'511.1
2018-Feb-14 17:00N 34°05' E 132°38'8 0.2
2018-Feb-13 07:44N 34°01' E 132°46'312.1
2018-Feb-13 07:30N 33°59' E 132°44'611.4
2018-Feb-13 07:00N 33°55' E 132°39'911.7
2018-Feb-13 06:12N 33°48' E 132°31'411.7
2018-Feb-13 05:54N 33°46' E 132°28'2911.3
2018-Feb-13 03:20N 33°27' E 132°02'410.9
2018-Feb-13 02:58N 33°24' E 131°58'611.5
2018-Feb-13 02:29N 33°20' E 131°53'612.1
2018-Feb-13 02:00N 33°17' E 131°48'2 3.1
2018-Feb-13 01:23N 33°15' E 131°47'0 0.0
2018-Feb-13 00:07N 33°15' E 131°47'2 1.6
2018-Feb-12 22:53N 33°17' E 131°47'5 9.8
2018-Feb-12 22:21N 33°22' E 131°44'1 2.5
2018-Feb-12 21:55N 33°23' E 131°43'0 0.0
2018-Feb-12 21:31N 33°23' E 131°43'0 0.0
2018-Feb-12 20:55N 33°23' E 131°43'0 0.1
2018-Feb-12 20:31N 33°23' E 131°43'0 0.0
2018-Feb-12 20:01N 33°23' E 131°43'0 0.0
2018-Feb-12 19:31N 33°23' E 131°43'0 0.0
2018-Feb-12 19:01N 33°23' E 131°43'0 0.0
2018-Feb-12 18:31N 33°23' E 131°43'0 0.0
2018-Feb-12 18:01N 33°23' E 131°43'0 0.0
2018-Feb-12 17:25N 33°23' E 131°43'3 7.1
2018-Feb-12 17:00N 33°24' E 131°46'712.4
2018-Feb-12 16:28N 33°28' E 131°53'3011.8
2018-Feb-12 13:54N 33°44' E 132°23'512.4
2018-Feb-12 13:29N 33°48' E 132°28'612.2
2018-Feb-12 12:58N 33°52' E 132°34'611.9
2018-Feb-12 12:28N 33°56' E 132°39'511.6
2018-Feb-12 11:59N 33°59' E 132°44'84 3.0
2018-Feb-11 07:55N 34°25' E 134°20'511.8
2018-Feb-11 07:29N 34°27' E 134°26'611.8
2018-Feb-11 07:00N 34°29' E 134°32'611.4
2018-Feb-11 06:30N 34°31' E 134°39'611.2
2018-Feb-11 06:01N 34°33' E 134°45'511.0
2018-Feb-11 05:31N 34°35' E 134°51'510.3
2018-Feb-11 05:00N 34°37' E 134°57'4 8.8
2018-Feb-11 04:31N 34°37' E 135°03'510.1
2018-Feb-11 04:01N 34°36' E 135°09'510.5
2018-Feb-11 03:30N 34°36' E 135°15'510.6
2018-Feb-11 03:01N 34°34' E 135°21'4 8.7
2018-Feb-11 02:31N 34°33' E 135°26'0 0.0
2018-Feb-11 02:00N 34°33' E 135°26'0 0.0
2018-Feb-11 01:30N 34°33' E 135°26'0 0.0
2018-Feb-11 01:01N 34°33' E 135°26'0 0.0
2018-Feb-11 00:31N 34°33' E 135°26'0 0.0
2018-Feb-11 00:01N 34°33' E 135°26'2 3.7
2018-Feb-10 23:31N 34°33' E 135°24'5 9.0
2018-Feb-10 23:00N 34°32' E 135°19'0 0.1
2018-Feb-10 22:29N 34°32' E 135°19'0 0.0
2018-Feb-10 21:56N 34°32' E 135°19'0 0.0
2018-Feb-10 21:29N 34°32' E 135°19'0 0.0
2018-Feb-10 20:59N 34°32' E 135°19'0 0.0
2018-Feb-10 20:29N 34°32' E 135°19'0 0.0
2018-Feb-10 19:59N 34°32' E 135°19'0 0.0
2018-Feb-10 19:29N 34°32' E 135°19'0 0.0
2018-Feb-10 18:59N 34°32' E 135°19'0 0.0
2018-Feb-10 18:29N 34°32' E 135°19'0 0.0
2018-Feb-10 17:59N 34°32' E 135°19'0 0.0
2018-Feb-10 17:29N 34°32' E 135°19'0 0.1
2018-Feb-10 16:59N 34°32' E 135°19'0 0.0
2018-Feb-10 16:29N 34°32' E 135°19'0 0.0
2018-Feb-10 15:59N 34°32' E 135°19'0 0.1
2018-Feb-10 15:29N 34°32' E 135°19'0 0.0
2018-Feb-10 14:59N 34°32' E 135°19'0 0.0
2018-Feb-10 14:29N 34°32' E 135°19'0 0.0
2018-Feb-10 13:59N 34°32' E 135°19'0 0.0
2018-Feb-10 13:29N 34°32' E 135°19'0 0.0
2018-Feb-10 12:59N 34°32' E 135°19'0 0.0
2018-Feb-10 12:29N 34°32' E 135°19'0 0.0
2018-Feb-10 12:01N 34°32' E 135°19'5 9.8
2018-Feb-10 11:31N 34°34' E 135°13'612.0
2018-Feb-10 11:01N 34°34' E 135°06'612.0
2018-Feb-10 10:31N 34°37' E 134°59'612.3
2018-Feb-10 10:00N 34°34' E 134°53'612.1
2018-Feb-10 09:30N 34°32' E 134°46'612.2
2018-Feb-10 09:00N 34°30' E 134°39'612.3
2018-Feb-10 08:30N 34°28' E 134°32'612.1
2018-Feb-10 07:58N 34°25' E 134°25'611.7
2018-Feb-10 07:26N 34°24' E 134°17'511.3
2018-Feb-10 06:59N 34°25' E 134°11'17 0.9
2018-Feb-09 12:00N 34°29' E 134°32'612.6
2018-Feb-09 11:30N 34°31' E 134°39'1212.2
2018-Feb-09 10:30N 34°35' E 134°53'1811.8
2018-Feb-09 09:00N 34°36' E 135°14'612.8
2018-Feb-09 08:30N 34°36' E 135°22'4 7.6
2018-Feb-09 08:00N 34°34' E 135°26'0 0.1
2018-Feb-09 07:30N 34°34' E 135°26'0 0.0
2018-Feb-09 07:00N 34°34' E 135°26'0 0.0
2018-Feb-09 06:00N 34°34' E 135°26'0 0.0
2018-Feb-09 05:00N 34°34' E 135°26'0 0.0
2018-Feb-09 04:30N 34°34' E 135°26'0 0.0
2018-Feb-09 04:00N 34°34' E 135°26'0 0.0
2018-Feb-09 03:30N 34°34' E 135°26'0 0.0
2018-Feb-09 03:00N 34°34' E 135°26'1 0.6
2018-Feb-09 02:00N 34°35' E 135°25'2 4.4
2018-Feb-09 01:30N 34°36' E 135°24'2 0.2
2018-Feb-08 16:00N 34°35' E 135°22'611.7
2018-Feb-08 15:30N 34°31' E 135°17'612.1
2018-Feb-08 15:00N 34°27' E 135°11'612.2
2018-Feb-08 14:30N 34°23' E 135°06'612.1
2018-Feb-08 14:00N 34°18' E 135°01'511.0
2018-Feb-08 13:30N 34°13' E 134°58'611.2
2018-Feb-08 13:00N 34°08' E 134°57'  
Track history (hours):
 
Tides and Currents Weather Stations Pressure Air Temp Water Temp Dewpoint Dewpoint Depression Visibility Wind Speed Wind Dir Waves Ship Positions

Ryozan Maru

Last reported at 2018-Feb-18 08:20 UTC. Time now 2018-Feb-19 08:25 UTC.
Position N 33°35' E 129°49'.

Length 65 m; draft 4.4 m.

Type: Tanker. MMSI: 431100316.

Date/timePositionNaut miles runAvg speedWind from/ knotsBaromVisibWave heightAir tempDewpointWater temp
2018-Feb-18 08:20N 33°35' E 129°49'412.5
2018-Feb-18 08:00N 33°38' E 129°52'712.6
2018-Feb-18 07:29N 33°42' E 129°58'612.2
2018-Feb-18 07:00N 33°45' E 130°04'612.0
2018-Feb-18 06:30N 33°49' E 130°10'611.9
2018-Feb-18 06:00N 33°52' E 130°16'612.0
2018-Feb-18 05:30N 33°56' E 130°22'611.1
2018-Feb-18 05:00N 33°57' E 130°28'612.0
2018-Feb-18 04:31N 33°58' E 130°35'612.4
2018-Feb-18 04:00N 33°58' E 130°43'4 7.4
2018-Feb-18 03:31N 33°56' E 130°47'0 0.0
2018-Feb-18 03:00N 33°56' E 130°47'0 0.0
2018-Feb-18 02:30N 33°56' E 130°47'0 0.0
2018-Feb-18 02:00N 33°56' E 130°47'0 0.0
2018-Feb-18 01:30N 33°56' E 130°47'0 0.0
2018-Feb-18 01:00N 33°56' E 130°47'0 0.0
2018-Feb-18 00:30N 33°56' E 130°47'1 2.8
2018-Feb-18 00:00N 33°57' E 130°46'5 9.8
2018-Feb-17 23:30N 34°02' E 130°47'611.4
2018-Feb-17 23:00N 34°01' E 130°54'1 1.0
2018-Feb-17 22:30N 34°01' E 130°54'0 0.0
2018-Feb-17 22:00N 34°01' E 130°54'0 0.0
2018-Feb-17 21:30N 34°01' E 130°54'0 0.0
2018-Feb-17 20:57N 34°01' E 130°54'0 0.0
2018-Feb-17 20:30N 34°01' E 130°54'0 0.0
2018-Feb-17 20:00N 34°01' E 130°54'0 0.0
2018-Feb-17 19:30N 34°01' E 130°54'0 0.0
2018-Feb-17 19:00N 34°01' E 130°54'0 0.0
2018-Feb-17 18:30N 34°01' E 130°54'0 0.0
2018-Feb-17 18:00N 34°01' E 130°54'0 0.1
2018-Feb-17 17:30N 34°01' E 130°54'0 0.1
2018-Feb-17 17:00N 34°01' E 130°54'0 0.1
2018-Feb-17 16:30N 34°01' E 130°54'0 0.0
2018-Feb-17 16:00N 34°01' E 130°54'0 0.0
2018-Feb-17 15:30N 34°01' E 130°54'0 0.0
2018-Feb-17 15:00N 34°01' E 130°54'0 0.1
2018-Feb-17 14:30N 34°01' E 130°54'0 0.0
2018-Feb-17 14:00N 34°01' E 130°54'0 0.1
2018-Feb-17 13:30N 34°01' E 130°54'0 0.0
2018-Feb-17 13:00N 34°01' E 130°54'0 0.0
2018-Feb-17 12:30N 34°01' E 130°54'0 0.1
2018-Feb-17 12:00N 34°01' E 130°54'0 0.0
2018-Feb-17 11:30N 34°01' E 130°54'1 3.0
2018-Feb-17 11:01N 34°00' E 130°53'612.0
2018-Feb-17 10:30N 34°02' E 130°46'611.4
2018-Feb-17 10:00N 34°02' E 130°39'611.5
2018-Feb-17 09:30N 33°59' E 130°33'611.4
2018-Feb-17 09:00N 33°57' E 130°26'611.7
2018-Feb-17 08:30N 33°54' E 130°20'611.5
2018-Feb-17 08:00N 33°51' E 130°14'611.9
2018-Feb-17 07:30N 33°48' E 130°08'611.9
2018-Feb-17 07:00N 33°44' E 130°03'812.0
2018-Feb-17 06:20N 33°40' E 129°55'512.5
2018-Feb-17 05:56N 33°36' E 129°50'1 0.1
2018-Feb-16 20:42N 33°36' E 129°49'311.9
2018-Feb-16 20:29N 33°38' E 129°51'611.5
2018-Feb-16 19:59N 33°41' E 129°56'511.2
2018-Feb-16 19:30N 33°44' E 130°01'611.0
2018-Feb-16 19:00N 33°47' E 130°07'511.0
2018-Feb-16 18:30N 33°50' E 130°12'510.7
2018-Feb-16 18:00N 33°54' E 130°17'510.5
2018-Feb-16 17:30N 33°56' E 130°23'510.2
2018-Feb-16 17:00N 33°58' E 130°29'510.3
2018-Feb-16 16:30N 34°00' E 130°34'510.4
2018-Feb-16 16:00N 34°02' E 130°40'5 9.9
2018-Feb-16 15:30N 34°03' E 130°46'5 9.4
2018-Feb-16 15:00N 34°00' E 130°51'510.5
2018-Feb-16 14:30N 33°55' E 130°54'5 9.4
2018-Feb-16 14:00N 33°58' E 130°58'510.4
2018-Feb-16 13:30N 33°57' E 131°04'612.3
2018-Feb-16 13:00N 33°53' E 131°10'611.3
2018-Feb-16 12:30N 33°51' E 131°17'5 9.9
2018-Feb-16 12:00N 33°50' E 131°22'5 9.8
2018-Feb-16 11:30N 33°49' E 131°28'5 9.8
2018-Feb-16 11:00N 33°48' E 131°34'510.8
2018-Feb-16 10:30N 33°47' E 131°40'612.6
2018-Feb-16 10:00N 33°46' E 131°48'612.3
2018-Feb-16 09:30N 33°46' E 131°55'612.0
2018-Feb-16 09:00N 33°46' E 132°02'611.7
2018-Feb-16 08:30N 33°49' E 132°08'510.6
2018-Feb-16 07:59N 33°54' E 132°09'4 8.6
2018-Feb-16 07:29N 33°58' E 132°12'511.3
2018-Feb-16 07:00N 34°03' E 132°15'612.2
2018-Feb-16 06:30N 34°08' E 132°18'611.1
2018-Feb-16 06:00N 34°13' E 132°15'0 0.4
2018-Feb-16 05:30N 34°13' E 132°15'0 0.0
2018-Feb-16 05:00N 34°13' E 132°15'0 0.0
2018-Feb-16 04:30N 34°13' E 132°15'0 0.0
2018-Feb-16 04:00N 34°13' E 132°15'0 0.0
2018-Feb-16 03:30N 34°13' E 132°15'0 0.0
2018-Feb-16 03:00N 34°13' E 132°15'0 0.0
2018-Feb-16 02:30N 34°13' E 132°15'0 0.0
2018-Feb-16 02:00N 34°13' E 132°15'0 0.0
2018-Feb-16 01:30N 34°13' E 132°15'0 0.0
2018-Feb-16 01:00N 34°13' E 132°15'0 0.0
2018-Feb-16 00:30N 34°13' E 132°15'0 0.0
2018-Feb-16 00:00N 34°13' E 132°15'0 0.0
2018-Feb-15 23:30N 34°13' E 132°15'0 0.0
2018-Feb-15 23:00N 34°13' E 132°15'0 0.0
2018-Feb-15 22:30N 34°13' E 132°15'0 0.0
2018-Feb-15 22:00N 34°13' E 132°15'0 0.0
2018-Feb-15 21:30N 34°13' E 132°15'0 0.0
2018-Feb-15 21:00N 34°13' E 132°15'0 0.0
2018-Feb-15 20:30N 34°13' E 132°15'0 0.0
2018-Feb-15 20:00N 34°13' E 132°15'0 0.0
2018-Feb-15 19:30N 34°13' E 132°15'0 0.0
2018-Feb-15 19:00N 34°13' E 132°15'0 0.0
2018-Feb-15 18:30N 34°13' E 132°15'0 0.0
2018-Feb-15 18:00N 34°13' E 132°15'0 0.0
2018-Feb-15 17:30N 34°13' E 132°15'0 0.0
2018-Feb-15 17:00N 34°13' E 132°15'0 0.0
2018-Feb-15 16:30N 34°13' E 132°15'0 0.0
2018-Feb-15 16:00N 34°13' E 132°15'0 0.0
2018-Feb-15 15:30N 34°13' E 132°15'0 0.0
2018-Feb-15 15:00N 34°13' E 132°15'0 0.0
2018-Feb-15 14:30N 34°13' E 132°15'0 0.0
2018-Feb-15 14:00N 34°13' E 132°15'0 0.0
2018-Feb-15 13:30N 34°13' E 132°15'0 0.0
2018-Feb-15 13:00N 34°13' E 132°15'0 0.0
2018-Feb-15 12:30N 34°13' E 132°15'0 0.0
2018-Feb-15 12:00N 34°13' E 132°15'0 0.0
2018-Feb-15 11:30N 34°13' E 132°15'0 0.0
2018-Feb-15 11:00N 34°13' E 132°15'0 0.0
2018-Feb-15 10:30N 34°13' E 132°15'0 0.0
2018-Feb-15 10:00N 34°13' E 132°15'0 0.0
2018-Feb-15 09:30N 34°13' E 132°15'0 0.0
2018-Feb-15 09:00N 34°13' E 132°15'0 0.0
2018-Feb-15 08:30N 34°13' E 132°15'0 0.0
2018-Feb-15 08:00N 34°13' E 132°15'0 0.0
2018-Feb-15 07:30N 34°13' E 132°15'0 0.0
2018-Feb-15 07:00N 34°13' E 132°15'0 0.0
2018-Feb-15 06:30N 34°13' E 132°15'1 1.3
2018-Feb-15 06:00N 34°13' E 132°15'612.6
2018-Feb-15 05:30N 34°16' E 132°22'612.7
2018-Feb-15 05:00N 34°19' E 132°29'3 5.3
2018-Feb-15 04:30N 34°22' E 132°31'0 0.0
2018-Feb-15 04:00N 34°22' E 132°31'0 0.0
2018-Feb-15 03:30N 34°22' E 132°31'0 0.0
2018-Feb-15 03:00N 34°22' E 132°31'0 0.0
2018-Feb-15 02:30N 34°22' E 132°31'0 0.0
2018-Feb-15 02:00N 34°22' E 132°31'0 0.0
2018-Feb-15 01:30N 34°22' E 132°31'0 0.0
2018-Feb-15 01:00N 34°22' E 132°31'0 0.0
2018-Feb-15 00:29N 34°22' E 132°31'0 0.6
2018-Feb-15 00:00N 34°21' E 132°31'2 3.9
2018-Feb-14 23:30N 34°20' E 132°29'1 2.5
2018-Feb-14 22:59N 34°18' E 132°29'0 0.0
2018-Feb-14 22:29N 34°18' E 132°29'0 0.0
2018-Feb-14 21:59N 34°18' E 132°29'0 0.0
2018-Feb-14 21:29N 34°18' E 132°29'0 0.0
2018-Feb-14 20:59N 34°18' E 132°29'0 0.0
2018-Feb-14 20:29N 34°18' E 132°29'0 0.0
2018-Feb-14 20:00N 34°18' E 132°29'3 6.3
2018-Feb-14 19:30N 34°17' E 132°25'4 9.2
2018-Feb-14 19:00N 34°14' E 132°22'510.4
2018-Feb-14 18:30N 34°09' E 132°22'510.1
2018-Feb-14 17:58N 34°05' E 132°27'510.1
2018-Feb-14 17:26N 34°03' E 132°33'511.1
2018-Feb-14 17:00N 34°05' E 132°38'8 0.2
2018-Feb-13 07:44N 34°01' E 132°46'312.1
2018-Feb-13 07:30N 33°59' E 132°44'611.4
2018-Feb-13 07:00N 33°55' E 132°39'911.7
2018-Feb-13 06:12N 33°48' E 132°31'411.7
2018-Feb-13 05:54N 33°46' E 132°28'2911.3
2018-Feb-13 03:20N 33°27' E 132°02'410.9
2018-Feb-13 02:58N 33°24' E 131°58'611.5
2018-Feb-13 02:29N 33°20' E 131°53'612.1
2018-Feb-13 02:00N 33°17' E 131°48'2 3.1
2018-Feb-13 01:23N 33°15' E 131°47'0 0.0
2018-Feb-13 00:07N 33°15' E 131°47'2 1.6
2018-Feb-12 22:53N 33°17' E 131°47'5 9.8
2018-Feb-12 22:21N 33°22' E 131°44'1 2.5
2018-Feb-12 21:55N 33°23' E 131°43'0 0.0
2018-Feb-12 21:31N 33°23' E 131°43'0 0.0
2018-Feb-12 20:55N 33°23' E 131°43'0 0.1
2018-Feb-12 20:31N 33°23' E 131°43'0 0.0
2018-Feb-12 20:01N 33°23' E 131°43'0 0.0
2018-Feb-12 19:31N 33°23' E 131°43'0 0.0
2018-Feb-12 19:01N 33°23' E 131°43'0 0.0
2018-Feb-12 18:31N 33°23' E 131°43'0 0.0
2018-Feb-12 18:01N 33°23' E 131°43'0 0.0
2018-Feb-12 17:25N 33°23' E 131°43'3 7.1
2018-Feb-12 17:00N 33°24' E 131°46'712.4
2018-Feb-12 16:28N 33°28' E 131°53'3011.8
2018-Feb-12 13:54N 33°44' E 132°23'512.4
2018-Feb-12 13:29N 33°48' E 132°28'612.2
2018-Feb-12 12:58N 33°52' E 132°34'611.9
2018-Feb-12 12:28N 33°56' E 132°39'511.6
2018-Feb-12 11:59N 33°59' E 132°44'84 3.0
2018-Feb-11 07:55N 34°25' E 134°20'511.8
2018-Feb-11 07:29N 34°27' E 134°26'611.8
2018-Feb-11 07:00N 34°29' E 134°32'611.4
2018-Feb-11 06:30N 34°31' E 134°39'611.2
2018-Feb-11 06:01N 34°33' E 134°45'511.0
2018-Feb-11 05:31N 34°35' E 134°51'510.3
2018-Feb-11 05:00N 34°37' E 134°57'4 8.8
2018-Feb-11 04:31N 34°37' E 135°03'510.1
2018-Feb-11 04:01N 34°36' E 135°09'510.5
2018-Feb-11 03:30N 34°36' E 135°15'510.6
2018-Feb-11 03:01N 34°34' E 135°21'4 8.7
2018-Feb-11 02:31N 34°33' E 135°26'0 0.0
2018-Feb-11 02:00N 34°33' E 135°26'0 0.0
2018-Feb-11 01:30N 34°33' E 135°26'0 0.0
2018-Feb-11 01:01N 34°33' E 135°26'0 0.0
2018-Feb-11 00:31N 34°33' E 135°26'0 0.0
2018-Feb-11 00:01N 34°33' E 135°26'2 3.7
2018-Feb-10 23:31N 34°33' E 135°24'5 9.0
2018-Feb-10 23:00N 34°32' E 135°19'0 0.1
2018-Feb-10 22:29N 34°32' E 135°19'0 0.0
2018-Feb-10 21:56N 34°32' E 135°19'0 0.0
2018-Feb-10 21:29N 34°32' E 135°19'0 0.0
2018-Feb-10 20:59N 34°32' E 135°19'0 0.0
2018-Feb-10 20:29N 34°32' E 135°19'0 0.0
2018-Feb-10 19:59N 34°32' E 135°19'0 0.0
2018-Feb-10 19:29N 34°32' E 135°19'0 0.0
2018-Feb-10 18:59N 34°32' E 135°19'0 0.0
2018-Feb-10 18:29N 34°32' E 135°19'0 0.0
2018-Feb-10 17:59N 34°32' E 135°19'0 0.0
2018-Feb-10 17:29N 34°32' E 135°19'0 0.1
2018-Feb-10 16:59N 34°32' E 135°19'0 0.0
2018-Feb-10 16:29N 34°32' E 135°19'0 0.0
2018-Feb-10 15:59N 34°32' E 135°19'0 0.1
2018-Feb-10 15:29N 34°32' E 135°19'0 0.0
2018-Feb-10 14:59N 34°32' E 135°19'0 0.0
2018-Feb-10 14:29N 34°32' E 135°19'0 0.0
2018-Feb-10 13:59N 34°32' E 135°19'0 0.0
2018-Feb-10 13:29N 34°32' E 135°19'0 0.0
2018-Feb-10 12:59N 34°32' E 135°19'0 0.0
2018-Feb-10 12:29N 34°32' E 135°19'0 0.0
2018-Feb-10 12:01N 34°32' E 135°19'5 9.8
2018-Feb-10 11:31N 34°34' E 135°13'612.0
2018-Feb-10 11:01N 34°34' E 135°06'612.0
2018-Feb-10 10:31N 34°37' E 134°59'612.3
2018-Feb-10 10:00N 34°34' E 134°53'612.1
2018-Feb-10 09:30N 34°32' E 134°46'612.2
2018-Feb-10 09:00N 34°30' E 134°39'612.3
2018-Feb-10 08:30N 34°28' E 134°32'612.1
2018-Feb-10 07:58N 34°25' E 134°25'611.7
2018-Feb-10 07:26N 34°24' E 134°17'511.3
2018-Feb-10 06:59N 34°25' E 134°11'17 0.9
2018-Feb-09 12:00N 34°29' E 134°32'612.6
2018-Feb-09 11:30N 34°31' E 134°39'1212.2
2018-Feb-09 10:30N 34°35' E 134°53'1811.8
2018-Feb-09 09:00N 34°36' E 135°14'612.8
2018-Feb-09 08:30N 34°36' E 135°22'4 7.6
2018-Feb-09 08:00N 34°34' E 135°26'0 0.1
2018-Feb-09 07:30N 34°34' E 135°26'0 0.0
2018-Feb-09 07:00N 34°34' E 135°26'0 0.0
2018-Feb-09 06:00N 34°34' E 135°26'0 0.0
2018-Feb-09 05:00N 34°34' E 135°26'0 0.0
2018-Feb-09 04:30N 34°34' E 135°26'0 0.0
2018-Feb-09 04:00N 34°34' E 135°26'0 0.0
2018-Feb-09 03:30N 34°34' E 135°26'0 0.0
2018-Feb-09 03:00N 34°34' E 135°26'1 0.6
2018-Feb-09 02:00N 34°35' E 135°25'2 4.4
2018-Feb-09 01:30N 34°36' E 135°24'2 0.2
2018-Feb-08 16:00N 34°35' E 135°22'611.7
2018-Feb-08 15:30N 34°31' E 135°17'612.1
2018-Feb-08 15:00N 34°27' E 135°11'612.2
2018-Feb-08 14:30N 34°23' E 135°06'612.1
2018-Feb-08 14:00N 34°18' E 135°01'511.0
2018-Feb-08 13:30N 34°13' E 134°58'611.2
2018-Feb-08 13:00N 34°08' E 134°57'  

Dump ship's entire track history